Time;durP1;ratioP1;P1;durP2;ratioP2;P2;SDS_P1;SDS_P2;PMS_P1;PMS_P2;Temp;Humidity;BMP_temperature;BMP_pressure;BME280_temperature;BME280_humidity;BME280_pressure;Samples;Min_cycle;Max_cycle;Signal;HPM_P1;HPM_P2
2021/06/11 00:01:27;;;;;;;2.50;1.67;;;;;;;15.20;69.64;97635.76;1752621;82;21033;-69
2021/06/11 00:03:54;;;;;;;2.17;1.60;;;;;;;15.17;70.86;97634.00;1752672;82;21077;-69
2021/06/11 00:06:21;;;;;;;3.17;1.80;;;;;;;15.12;69.43;97639.77;1752962;82;21061;-68
2021/06/11 00:08:48;;;;;;;2.77;1.80;;;;;;;15.09;69.91;97649.77;1752683;82;21152;-69
2021/06/11 00:11:15;;;;;;;2.22;1.70;;;;;;;15.04;69.57;97645.06;1753168;82;21041;-68
2021/06/11 00:13:42;;;;;;;3.05;1.95;;;;;;;14.99;69.86;97636.94;1752732;82;21097;-69
2021/06/11 00:16:10;;;;;;;3.37;2.10;;;;;;;14.93;70.20;97632.43;1752861;82;21052;-69
2021/06/11 00:18:37;;;;;;;5.60;2.00;;;;;;;14.86;71.35;97628.91;1753043;82;21080;-70
2021/06/11 00:21:04;;;;;;;3.65;2.17;;;;;;;14.74;73.15;97625.09;1752808;82;21030;-69
2021/06/11 00:23:31;;;;;;;2.60;1.70;;;;;;;14.70;71.07;97622.52;1752579;82;21117;-69
2021/06/11 00:25:58;;;;;;;3.08;1.60;;;;;;;14.65;72.09;97619.61;1752885;82;21073;-69
2021/06/11 00:28:25;;;;;;;2.02;1.52;;;;;;;14.61;71.26;97623.56;1752310;82;21073;-69
2021/06/11 00:30:52;;;;;;;4.53;1.98;;;;;;;14.58;71.77;97621.30;1752615;82;21081;-69
2021/06/11 00:33:19;;;;;;;2.15;1.60;;;;;;;14.55;71.63;97617.74;1752942;82;21020;-69
2021/06/11 00:35:45;;;;;;;3.00;1.82;;;;;;;14.51;69.65;97617.25;1752834;81;21037;-69
2021/06/11 00:38:12;;;;;;;3.10;1.52;;;;;;;14.49;70.85;97617.94;1752465;82;21187;-67
2021/06/11 00:40:42;;;;;;;3.95;2.00;;;;;;;14.45;70.88;97615.36;1752737;82;21049;-66
2021/06/11 00:43:12;;;;;;;2.87;1.65;;;;;;;14.43;71.07;97608.69;1753146;82;21580;-67
2021/06/11 00:45:42;;;;;;;2.75;1.90;;;;;;;14.35;74.09;97606.95;1752452;82;21018;-66
2021/06/11 00:48:10;;;;;;;3.30;1.85;;;;;;;14.26;74.91;97607.47;1753199;82;21497;-66
2021/06/11 00:50:37;;;;;;;2.45;1.85;;;;;;;14.20;74.08;97607.36;1753000;82;21513;-68
2021/06/11 00:53:08;;;;;;;3.50;1.70;;;;;;;14.18;74.91;97608.02;1752916;82;21017;-68
2021/06/11 00:55:37;;;;;;;2.90;2.15;;;;;;;14.16;74.05;97605.56;1753444;82;21085;-67
2021/06/11 00:58:04;;;;;;;2.65;1.82;;;;;;;14.13;75.34;97599.87;1752879;82;21017;-66
2021/06/11 01:00:30;;;;;;;3.17;1.98;;;;;;;14.12;73.32;97600.89;1752730;82;21045;-67
2021/06/11 01:02:57;;;;;;;2.62;1.67;;;;;;;14.11;74.00;97607.09;1752771;81;21081;-64
2021/06/11 01:05:24;;;;;;;2.52;1.72;;;;;;;14.07;72.42;97606.63;1752767;82;21049;-65
2021/06/11 01:07:53;;;;;;;2.72;1.85;;;;;;;14.06;73.16;97614.62;1752874;82;21089;-68
2021/06/11 01:10:21;;;;;;;3.10;1.62;;;;;;;14.03;72.54;97613.17;1752582;82;21033;-67
2021/06/11 01:12:50;;;;;;;2.50;1.80;;;;;;;13.99;71.74;97607.16;1752939;82;21550;-68
2021/06/11 01:15:17;;;;;;;3.00;2.10;;;;;;;13.96;72.58;97599.68;1753152;82;21129;-68
2021/06/11 01:17:45;;;;;;;4.92;1.77;;;;;;;13.91;73.36;97604.11;1753224;82;21453;-69
2021/06/11 01:20:14;;;;;;;4.87;1.70;;;;;;;13.89;74.05;97613.11;1752631;81;21017;-67
2021/06/11 01:23:31;;;;;;;3.55;1.70;;;;;;;13.86;73.60;97609.02;1752963;82;21080;-67
2021/06/11 01:26:25;;;;;;;3.30;1.82;;;;;;;13.84;73.08;97611.49;1752195;82;21069;-67
2021/06/11 01:28:57;;;;;;;3.00;1.75;;;;;;;13.82;73.94;97607.73;1752614;82;21628;-68
2021/06/11 01:31:28;;;;;;;2.27;1.55;;;;;;;13.78;72.52;97609.06;1752662;81;21076;-67
2021/06/11 01:34:12;;;;;;;2.27;1.42;;;;;;;13.75;72.22;97601.09;1752696;82;21155;-67
2021/06/11 01:37:03;;;;;;;2.62;1.60;;;;;;;13.74;71.98;97603.38;1748935;82;21124;-68
2021/06/11 01:39:32;;;;;;;2.67;1.60;;;;;;;13.72;70.64;97604.05;1752726;82;21061;-68
2021/06/11 01:42:00;;;;;;;1.85;1.25;;;;;;;13.69;70.85;97603.09;1752914;82;21513;-68
2021/06/11 01:44:29;;;;;;;1.85;1.27;;;;;;;13.67;70.56;97604.23;1752984;82;21518;-68
2021/06/11 01:46:58;;;;;;;2.92;1.72;;;;;;;13.65;71.46;97610.13;1753071;82;21663;-69
2021/06/11 01:49:28;;;;;;;2.87;1.98;;;;;;;13.62;70.87;97611.26;1721393;82;21537;-68
2021/06/11 01:51:58;;;;;;;3.10;1.80;;;;;;;13.59;72.69;97609.48;1750846;81;21553;-71
2021/06/11 01:54:27;;;;;;;2.05;1.47;;;;;;;13.58;72.74;97607.87;1750421;82;21004;-71
2021/06/11 01:56:55;;;;;;;2.47;2.10;;;;;;;13.56;72.67;97609.34;1750436;82;21080;-72
2021/06/11 01:59:23;;;;;;;1.95;1.62;;;;;;;13.58;72.86;97612.58;1750345;82;21096;-72
2021/06/11 02:01:51;;;;;;;2.60;1.52;;;;;;;13.58;73.35;97609.97;1749888;82;21117;-72
2021/06/11 02:04:19;;;;;;;3.95;1.40;;;;;;;13.60;72.25;97609.81;1750393;82;21082;-72
2021/06/11 02:06:47;;;;;;;4.00;1.65;;;;;;;13.58;72.58;97607.36;1750082;82;21506;-72
2021/06/11 02:09:15;;;;;;;3.60;1.72;;;;;;;13.59;72.80;97600.35;1750484;82;21103;-72
2021/06/11 02:11:43;;;;;;;2.62;1.67;;;;;;;13.57;72.32;97604.45;1750245;82;21283;-72
2021/06/11 02:14:12;;;;;;;3.20;1.70;;;;;;;13.56;73.14;97604.61;1750133;82;20998;-72
2021/06/11 02:16:41;;;;;;;2.40;1.80;;;;;;;13.53;73.81;97608.88;1750323;82;21033;-72
2021/06/11 02:19:08;;;;;;;1.92;1.67;;;;;;;13.47;75.64;97612.14;1750360;82;21108;-72
2021/06/11 02:21:35;;;;;;;2.67;1.47;;;;;;;13.45;72.63;97609.72;1750569;82;21568;-72
2021/06/11 02:24:03;;;;;;;2.10;1.45;;;;;;;13.45;72.54;97611.51;1750670;81;21009;-72
2021/06/11 02:26:32;;;;;;;1.75;1.00;;;;;;;13.44;72.07;97614.60;1750697;82;21652;-72
2021/06/11 02:28:59;;;;;;;3.95;1.82;;;;;;;13.43;72.57;97610.85;1750711;82;21096;-72
2021/06/11 02:31:26;;;;;;;2.70;1.60;;;;;;;13.43;72.63;97619.48;1750649;82;21052;-72
2021/06/11 02:33:53;;;;;;;2.40;1.87;;;;;;;13.43;71.95;97612.97;1750773;82;21045;-72
2021/06/11 02:36:20;;;;;;;4.08;1.82;;;;;;;13.44;72.07;97613.79;1750394;82;21096;-72
2021/06/11 02:38:47;;;;;;;2.87;1.77;;;;;;;13.44;73.01;97622.43;1750436;82;21041;-72
2021/06/11 02:41:18;;;;;;;2.45;1.55;;;;;;;13.41;75.44;97624.08;1750402;82;21148;-68
2021/06/11 02:43:47;;;;;;;1.90;1.40;;;;;;;13.37;76.31;97624.09;1750204;81;21024;-67
2021/06/11 02:46:37;;;;;;;1.85;1.55;;;;;;;13.37;75.82;97630.61;1750597;82;21044;-68
2021/06/11 02:49:15;;;;;;;2.25;1.62;;;;;;;13.40;76.12;97624.23;1750185;82;21605;-67
2021/06/11 02:51:49;;;;;;;2.85;1.70;;;;;;;13.44;75.20;97622.92;1745632;82;21089;-71
2021/06/11 02:54:24;;;;;;;2.27;1.42;;;;;;;13.47;74.16;97624.70;1750833;82;21509;-70
2021/06/11 02:57:08;;;;;;;2.00;1.70;;;;;;;13.51;73.02;97626.47;1750888;81;21100;-70
2021/06/11 02:59:39;;;;;;;2.00;1.45;;;;;;;13.54;73.89;97622.24;1750816;82;21656;-72
2021/06/11 03:02:10;;;;;;;1.75;1.45;;;;;;;13.55;73.93;97619.45;1750517;82;21041;-70
2021/06/11 03:04:43;;;;;;;2.12;1.37;;;;;;;13.58;72.28;97616.49;1750554;82;21569;-70
2021/06/11 03:07:17;;;;;;;1.90;1.30;;;;;;;13.61;72.27;97621.40;1750987;81;21456;-70
2021/06/11 03:09:45;;;;;;;1.90;1.52;;;;;;;13.62;72.21;97617.78;1750770;82;21529;-70
2021/06/11 03:12:14;;;;;;;2.05;1.20;;;;;;;13.64;72.70;97624.97;1750947;82;21010;-70
2021/06/11 03:14:43;;;;;;;1.67;1.27;;;;;;;13.65;72.21;97621.87;1730160;82;21091;-70
2021/06/11 03:17:11;;;;;;;2.77;1.67;;;;;;;13.65;72.13;97626.59;1751041;82;21596;-70
2021/06/11 03:19:41;;;;;;;3.80;1.52;;;;;;;13.65;72.17;97627.91;1750847;82;21037;-71
2021/06/11 03:22:15;;;;;;;2.10;1.20;;;;;;;13.65;72.39;97626.59;1751011;82;21046;-70
2021/06/11 03:24:59;;;;;;;5.40;1.82;;;;;;;13.63;72.06;97632.46;1729744;82;21080;-69
2021/06/11 03:27:47;;;;;;;3.22;1.82;;;;;;;13.65;71.96;97627.91;1750925;82;21053;-71
2021/06/11 03:30:15;;;;;;;2.17;1.45;;;;;;;13.66;73.03;97625.59;1751214;81;21045;-68
2021/06/11 03:32:51;;;;;;;2.27;1.57;;;;;;;13.71;73.94;97625.91;1751127;82;21060;-67
2021/06/11 03:35:22;;;;;;;2.20;1.60;;;;;;;13.71;73.62;97633.73;1730317;82;21081;-66
2021/06/11 03:37:54;;;;;;;2.65;1.77;;;;;;;13.74;72.58;97625.56;1751234;81;21073;-67
2021/06/11 03:40:25;;;;;;;2.45;1.70;;;;;;;13.78;73.51;97630.76;1750998;82;21045;-66
2021/06/11 03:42:57;;;;;;;2.83;1.70;;;;;;;13.83;72.84;97632.86;1751005;81;21057;-68
2021/06/11 03:45:25;;;;;;;1.87;1.37;;;;;;;13.87;73.25;97631.53;1750944;82;21605;-69
2021/06/11 03:47:54;;;;;;;2.08;1.50;;;;;;;13.91;72.26;97638.53;1750876;82;21053;-68
2021/06/11 03:50:25;;;;;;;2.40;1.27;;;;;;;13.97;72.27;97637.86;1750968;82;21049;-68
2021/06/11 03:52:55;;;;;;;4.92;1.55;;;;;;;14.02;71.54;97643.36;1750423;82;21490;-65
2021/06/11 03:55:30;;;;;;;1.80;1.25;;;;;;;14.07;71.25;97639.27;1745788;82;21013;-67
2021/06/11 03:58:07;;;;;;;3.05;1.60;;;;;;;14.10;71.29;97640.70;1708022;82;21018;-68
2021/06/11 04:00:35;;;;;;;1.98;1.40;;;;;;;14.13;72.40;97639.05;1743558;82;21041;-67
2021/06/11 04:03:02;;;;;;;2.75;1.80;;;;;;;14.12;73.02;97641.36;1750689;82;21545;-68
2021/06/11 04:05:29;;;;;;;3.98;1.85;;;;;;;14.11;73.29;97648.87;1750431;82;21046;-65
2021/06/11 04:07:58;;;;;;;5.47;2.02;;;;;;;14.13;73.72;97645.09;1750534;82;20990;-67
2021/06/11 04:10:42;;;;;;;3.27;2.05;;;;;;;14.19;72.74;97648.33;1750751;82;21541;-65
2021/06/11 04:13:17;;;;;;;3.02;1.90;;;;;;;14.16;73.48;97654.39;1750961;82;21013;-68
2021/06/11 04:15:56;;;;;;;2.17;1.80;;;;;;;14.21;73.11;97649.45;1750752;82;21049;-68
2021/06/11 04:18:28;;;;;;;12.47;6.87;;;;;;;14.31;71.58;97646.13;1750799;82;21021;-68
2021/06/11 04:20:59;;;;;;;4.65;2.50;;;;;;;14.38;72.66;97651.01;1750834;82;21048;-65
2021/06/11 04:23:35;;;;;;;8.78;4.72;;;;;;;14.38;72.69;97651.01;1750874;82;20994;-66
2021/06/11 04:26:03;;;;;;;26.48;12.82;;;;;;;14.45;72.49;97652.42;1750757;82;21081;-66
2021/06/11 04:28:33;;;;;;;41.70;21.15;;;;;;;14.51;72.13;97651.74;1750576;82;21064;-66
2021/06/11 04:31:01;;;;;;;9.95;6.03;;;;;;;14.62;71.45;97646.92;1750527;82;21127;-67
2021/06/11 04:33:30;;;;;;;4.08;2.25;;;;;;;14.75;72.12;97648.13;1750528;82;21088;-68
2021/06/11 04:35:58;;;;;;;3.10;1.98;;;;;;;14.85;71.62;97646.06;1750572;82;21081;-67
2021/06/11 04:38:25;;;;;;;3.30;2.17;;;;;;;14.95;71.25;97646.13;1750698;82;21498;-68
2021/06/11 04:40:52;;;;;;;2.67;1.95;;;;;;;15.00;70.94;97648.21;1750390;82;21113;-66
2021/06/11 04:43:41;;;;;;;5.10;2.35;;;;;;;15.08;70.95;97654.67;1750464;82;21030;-66
2021/06/11 04:46:08;;;;;;;3.37;2.02;;;;;;;15.17;70.64;97650.48;1785938;80;21080;-69
2021/06/11 04:48:34;;;;;;;3.25;2.12;;;;;;;15.30;69.80;97652.97;1785480;80;21033;-70
2021/06/11 04:51:01;;;;;;;5.47;2.35;;;;;;;15.36;69.47;97657.50;1785475;80;21478;-70
2021/06/11 04:53:28;;;;;;;2.77;1.90;;;;;;;15.38;68.84;97657.62;1789397;80;21099;-70
2021/06/11 04:55:57;;;;;;;2.65;1.80;;;;;;;15.45;68.59;97653.78;1785470;80;21093;-71
2021/06/11 04:58:27;;;;;;;3.47;1.92;;;;;;;15.52;68.79;97647.70;1779633;80;21053;-71
2021/06/11 05:00:54;;;;;;;2.62;1.85;;;;;;;15.66;68.40;97651.30;1794864;79;21081;-70
2021/06/11 05:03:22;;;;;;;2.85;1.60;;;;;;;15.77;67.38;97652.13;1787210;79;21001;-70
2021/06/11 05:05:49;;;;;;;2.85;1.80;;;;;;;15.86;67.16;97655.47;1800392;79;21037;-71
2021/06/11 05:08:16;;;;;;;2.30;1.75;;;;;;;15.93;67.16;97654.55;1818095;79;21018;-70
2021/06/11 05:10:43;;;;;;;2.10;1.55;;;;;;;16.00;67.22;97648.89;1799219;79;21010;-70
2021/06/11 05:13:10;;;;;;;2.50;1.80;;;;;;;16.12;66.82;97655.77;1776732;79;21114;-71
2021/06/11 05:15:37;;;;;;;2.55;1.40;;;;;;;16.27;66.95;97652.60;1765248;79;21030;-71
2021/06/11 05:18:07;;;;;;;2.77;1.62;;;;;;;16.45;66.54;97653.50;1724436;83;21026;-67
2021/06/11 05:20:37;;;;;;;3.05;1.75;;;;;;;16.60;66.02;97657.72;1724362;83;21002;-67
2021/06/11 05:23:06;;;;;;;2.47;1.55;;;;;;;16.77;65.96;97656.94;1724066;82;21062;-69
2021/06/11 05:25:35;;;;;;;3.27;1.87;;;;;;;16.96;64.87;97656.81;1724438;82;21018;-71
2021/06/11 05:28:02;;;;;;;3.08;1.87;;;;;;;17.05;64.14;97660.89;1723876;83;21185;-68
2021/06/11 05:30:31;;;;;;;2.42;1.85;;;;;;;17.14;63.86;97663.70;1723842;82;21082;-68
2021/06/11 05:32:58;;;;;;;2.55;1.72;;;;;;;17.28;63.37;97672.45;1723708;82;21138;-68
2021/06/11 05:35:25;;;;;;;2.22;1.57;;;;;;;17.39;63.78;97675.36;1724237;83;21163;-68
2021/06/11 05:37:52;;;;;;;1.85;1.50;;;;;;;17.60;62.59;97675.83;1724058;82;21098;-68
2021/06/11 05:40:19;;;;;;;2.45;1.50;;;;;;;17.75;62.36;97673.88;1724356;83;21074;-68
2021/06/11 05:42:49;;;;;;;2.67;1.62;;;;;;;17.80;61.68;97670.18;1724143;82;21172;-71
2021/06/11 05:45:16;;;;;;;1.72;1.20;;;;;;;17.87;62.04;97669.70;1717946;82;21158;-69
2021/06/11 05:47:43;;;;;;;2.27;1.40;;;;;;;18.06;62.19;97669.97;1713635;82;21030;-68
2021/06/11 05:50:10;;;;;;;2.05;1.55;;;;;;;18.30;62.21;97668.95;1714182;84;20979;-68
2021/06/11 05:52:38;;;;;;;3.47;1.37;;;;;;;18.52;61.41;97670.15;1713965;84;21030;-69
2021/06/11 05:55:07;;;;;;;4.40;1.22;;;;;;;18.64;60.54;97671.97;1713801;82;21070;-68
2021/06/11 05:57:34;;;;;;;2.77;1.70;;;;;;;18.82;60.45;97671.39;1714170;82;20995;-68
2021/06/11 06:00:02;;;;;;;2.45;1.52;;;;;;;18.96;59.73;97669.88;1713901;84;21069;-69
2021/06/11 06:02:30;;;;;;;3.60;2.00;;;;;;;19.13;59.09;97674.23;1710832;82;21494;-68
2021/06/11 06:04:57;;;;;;;10.25;4.67;;;;;;;19.22;58.12;97670.35;1707700;83;22363;-68
2021/06/11 06:07:24;;;;;;;82.95;40.30;;;;;;;19.35;58.13;97672.17;1730410;83;20999;-67
2021/06/11 06:09:51;;;;;;;25.17;12.70;;;;;;;19.54;58.72;97674.48;1767254;81;21070;-68
2021/06/11 06:12:18;;;;;;;3.80;2.95;;;;;;;19.74;58.26;97673.44;1766989;80;21034;-68
2021/06/11 06:14:45;;;;;;;3.42;2.15;;;;;;;19.82;56.96;97678.48;1766950;80;20983;-67
2021/06/11 06:17:12;;;;;;;2.60;1.82;;;;;;;19.82;56.48;97678.48;1768948;80;21104;-69
2021/06/11 06:19:43;;;;;;;2.37;2.15;;;;;;;19.96;57.42;97679.22;1769890;80;21082;-68
2021/06/11 06:22:10;;;;;;;2.70;1.75;;;;;;;20.14;56.72;97671.97;1780058;80;21066;-67
2021/06/11 06:24:39;;;;;;;3.62;2.05;;;;;;;20.32;56.48;97676.87;1777463;80;20943;-68
2021/06/11 06:27:07;;;;;;;1.85;1.40;;;;;;;20.51;55.29;97671.17;1780089;80;21470;-68
2021/06/11 06:29:34;;;;;;;2.30;1.80;;;;;;;20.41;55.16;97668.20;1780104;80;21554;-68
2021/06/11 06:32:04;;;;;;;2.83;1.75;;;;;;;20.72;55.11;97665.56;1779410;80;21120;-67
2021/06/11 06:34:32;;;;;;;2.60;1.55;;;;;;;21.03;55.53;97665.22;1778856;80;21001;-68
2021/06/11 06:36:59;;;;;;;2.55;1.87;;;;;;;21.34;55.49;97673.61;1778805;80;21104;-68
2021/06/11 06:39:27;;;;;;;2.02;1.80;;;;;;;21.32;52.47;97676.48;1780947;80;21065;-67
2021/06/11 06:41:58;;;;;;;4.00;1.80;;;;;;;21.52;52.38;97678.91;1780087;80;21078;-67
2021/06/11 06:44:25;;;;;;;2.30;1.60;;;;;;;21.69;53.39;97678.13;1780233;80;21494;-68
2021/06/11 06:46:52;;;;;;;3.12;1.60;;;;;;;21.89;53.01;97674.46;1771740;80;21145;-67
2021/06/11 06:49:19;;;;;;;2.58;1.47;;;;;;;22.03;52.91;97675.43;1770980;80;21022;-67
2021/06/11 06:51:47;;;;;;;2.30;1.70;;;;;;;21.94;50.44;97670.17;1769926;80;21546;-67
2021/06/11 06:54:15;;;;;;;3.85;1.82;;;;;;;22.09;52.38;97669.27;1768604;80;21114;-67
2021/06/11 06:56:42;;;;;;;2.33;1.90;;;;;;;22.21;51.84;97668.81;1769154;80;21218;-68
2021/06/11 06:59:10;;;;;;;1.98;1.60;;;;;;;22.34;50.84;97669.13;1771209;80;21570;-68
2021/06/11 07:01:37;;;;;;;1.80;1.30;;;;;;;22.00;50.74;97667.95;1769761;81;21487;-67
2021/06/11 07:04:04;;;;;;;3.15;2.02;;;;;;;22.09;50.61;97665.30;1771376;81;21436;-70
2021/06/11 07:06:31;;;;;;;3.50;2.20;;;;;;;22.03;50.23;97667.50;1771453;81;21046;-69
2021/06/11 07:08:58;;;;;;;4.53;2.27;;;;;;;21.32;51.89;97663.80;1770752;81;21139;-68
2021/06/11 07:11:25;;;;;;;3.15;1.98;;;;;;;21.50;51.81;97669.09;1770556;81;21042;-67
2021/06/11 07:13:52;;;;;;;2.37;1.50;;;;;;;21.96;51.19;97669.92;1770279;81;21003;-69
2021/06/11 07:16:19;;;;;;;4.12;1.72;;;;;;;22.24;50.52;97653.81;1770937;81;21081;-68
2021/06/11 07:18:46;;;;;;;1.45;1.30;;;;;;;22.44;49.60;97660.66;1770313;81;21086;-68
2021/06/11 07:21:13;;;;;;;3.58;2.02;;;;;;;22.57;49.37;97659.94;1771688;81;21261;-68
2021/06/11 07:23:41;;;;;;;2.52;2.08;;;;;;;22.68;49.78;97650.47;1771474;81;21157;-67
2021/06/11 07:26:09;;;;;;;1.50;1.30;;;;;;;22.74;48.67;97654.84;1771590;81;21523;-71
2021/06/11 07:28:37;;;;;;;3.20;1.67;;;;;;;;;;1771482;81;21137;-71
2021/06/11 07:31:05;;;;;;;2.75;2.02;;;;;;;23.11;47.71;97651.52;1771571;80;21010;-71
2021/06/11 07:33:32;;;;;;;2.65;1.80;;;;;;;23.18;47.81;97643.74;1778317;79;21885;-71
2021/06/11 07:36:02;;;;;;;4.87;2.10;;;;;;;23.14;47.56;97647.88;1782879;80;21073;-72
2021/06/11 07:38:29;;;;;;;3.95;1.37;;;;;;;23.15;48.29;97650.80;1782984;80;21054;-71
2021/06/11 07:40:57;;;;;;;2.12;1.65;;;;;;;23.30;47.79;97649.55;1783090;79;21505;-72
2021/06/11 07:43:24;;;;;;;2.70;1.40;;;;;;;23.57;48.21;97643.58;1782472;80;21180;-72
2021/06/11 07:45:52;;;;;;;3.02;2.47;;;;;;;23.70;45.78;97641.69;1782504;79;21097;-71
2021/06/11 07:48:19;;;;;;;3.40;2.58;;;;;;;23.49;45.75;97641.28;1783101;80;21069;-71
2021/06/11 07:50:47;;;;;;;2.30;1.80;;;;;;;23.35;45.65;97643.83;1781659;80;21082;-71
2021/06/11 07:53:15;;;;;;;3.12;1.27;;;;;;;23.62;43.24;97646.83;1782272;80;21066;-71
2021/06/11 07:55:42;;;;;;;3.37;1.37;;;;;;;23.91;45.85;97639.23;1782381;80;21014;-70
2021/06/11 07:58:09;;;;;;;4.45;1.67;;;;;;;24.12;45.32;97641.22;1783055;79;21217;-70
2021/06/11 08:00:39;;;;;;;3.52;2.50;;;;;;;24.28;44.92;97641.56;1775782;80;21097;-70
2021/06/11 08:03:06;;;;;;;2.92;2.08;;;;;;;24.03;43.42;97643.98;1755646;80;21260;-71
2021/06/11 08:05:32;;;;;;;2.95;1.77;;;;;;;23.74;43.66;97641.50;1750218;82;21073;-71
2021/06/11 08:07:59;;;;;;;3.00;1.98;;;;;;;23.87;43.57;97642.06;1751089;82;21008;-68
2021/06/11 08:10:27;;;;;;;2.92;1.55;;;;;;;23.53;44.11;97641.62;1750222;82;21018;-68
2021/06/11 08:12:54;;;;;;;1.45;1.22;;;;;;;23.68;44.38;97640.61;1750419;82;21005;-68
2021/06/11 08:15:21;;;;;;;9.03;6.25;;;;;;;24.10;44.76;97641.99;1750711;82;21069;-67
2021/06/11 08:17:48;;;;;;;46.53;24.05;;;;;;;24.28;44.37;97640.23;1750476;82;21002;-71
2021/06/11 08:20:15;;;;;;;26.10;15.05;;;;;;;24.44;44.44;97642.91;1750956;82;21104;-68
2021/06/11 08:22:42;;;;;;;5.75;3.72;;;;;;;24.52;42.72;97634.55;1750982;82;21010;-68
2021/06/11 08:25:11;;;;;;;2.20;1.98;;;;;;;24.61;42.62;97637.63;1749639;82;21053;-68
2021/06/11 08:27:39;;;;;;;4.08;1.45;;;;;;;24.74;43.54;97627.23;1750452;82;20985;-68
2021/06/11 08:30:13;;;;;;;1.92;1.75;;;;;;;24.44;41.80;97633.61;1749456;82;21079;-68
2021/06/11 08:32:38;;;;;;;2.35;1.70;;;;;;;24.48;43.10;97634.75;1728585;81;21744;-69
2021/06/11 08:35:07;;;;;;;2.02;1.35;;;;;;;24.49;41.75;97636.89;1751001;82;21582;-68
2021/06/11 08:37:35;;;;;;;2.00;1.37;;;;;;;24.55;42.15;97628.77;1750176;82;21104;-68
2021/06/11 08:40:05;;;;;;;1.50;1.40;;;;;;;24.42;40.41;97626.95;1749421;82;21093;-68
2021/06/11 08:42:32;;;;;;;3.10;1.30;;;;;;;24.17;41.03;97627.80;1749576;82;21541;-68
2021/06/11 08:45:10;;;;;;;1.55;1.27;;;;;;;24.22;41.22;97629.23;1747256;82;21046;-68
2021/06/11 08:47:43;;;;;;;3.75;2.62;;;;;;;24.27;41.23;97626.16;1722875;83;21537;-68
2021/06/11 08:50:10;;;;;;;2.42;2.05;;;;;;;24.02;41.26;97629.09;1702389;83;21029;-68
2021/06/11 08:52:36;;;;;;;2.35;1.50;;;;;;;24.05;41.32;97618.02;1722936;83;21241;-69
2021/06/11 08:55:05;;;;;;;3.42;1.52;;;;;;;24.20;42.18;97616.73;1723363;83;21162;-68
2021/06/11 08:57:31;;;;;;;2.40;1.67;;;;;;;24.41;42.81;97618.69;1725966;82;21022;-68
2021/06/11 08:59:59;;;;;;;1.95;1.42;;;;;;;24.76;43.24;97615.31;1722313;83;21562;-68
2021/06/11 09:02:26;;;;;;;2.10;1.90;;;;;;;25.25;43.18;97617.67;1724507;82;21128;-69
2021/06/11 09:04:57;;;;;;;1.82;1.42;;;;;;;25.52;42.33;97613.84;1723335;83;21069;-70
2021/06/11 09:07:33;;;;;;;2.02;1.20;;;;;;;25.66;42.18;97617.73;1724106;83;21030;-71
2021/06/11 09:10:05;;;;;;;3.47;1.12;;;;;;;25.64;41.39;97613.17;1724039;83;21097;-69
2021/06/11 09:12:37;;;;;;;2.10;1.72;;;;;;;25.59;41.61;97609.66;1723628;82;21014;-68
2021/06/11 09:15:12;;;;;;;3.15;2.75;;;;;;;25.10;42.02;97604.16;1723461;82;21570;-69
2021/06/11 09:17:43;;;;;;;1.95;1.45;;;;;;;25.26;41.52;97602.53;1723831;83;21029;-69
2021/06/11 09:20:23;;;;;;;1.30;1.20;;;;;;;25.57;40.06;97595.80;1722807;83;21073;-68
2021/06/11 09:23:01;;;;;;;1.87;1.30;;;;;;;25.78;40.79;97599.80;1723532;82;21027;-68
2021/06/11 09:25:43;;;;;;;2.50;1.30;;;;;;;25.90;39.90;97592.49;1705019;84;21289;-69
2021/06/11 09:28:14;;;;;;;1.57;0.93;;;;;;;25.70;39.35;97552.36;1705256;84;21075;-68
2021/06/11 09:30:49;;;;;;;1.00;0.78;;;;;;;25.98;39.53;97599.23;1722958;83;21077;-69
2021/06/11 09:33:19;;;;;;;1.00;0.82;;;;;;;25.92;39.16;97591.70;1722872;82;21085;-71
2021/06/11 09:35:59;;;;;;;1.22;0.93;;;;;;;25.74;37.75;97596.55;1723550;83;21113;-68
2021/06/11 09:38:29;;;;;;;1.77;1.30;;;;;;;25.67;37.13;97595.94;1723376;82;21042;-68
2021/06/11 09:41:08;;;;;;;1.40;1.30;;;;;;;25.49;35.19;97601.79;1728446;82;21045;-70
2021/06/11 09:43:37;;;;;;;1.20;1.10;;;;;;;25.40;35.91;97595.83;1728673;82;21045;-69
2021/06/11 09:46:10;;;;;;;2.52;1.30;;;;;;;25.18;34.85;97604.27;1724930;81;21525;-69
2021/06/11 09:48:47;;;;;;;1.55;1.02;;;;;;;24.91;35.46;97601.48;1728364;83;21077;-69
2021/06/11 09:51:26;;;;;;;2.75;1.40;;;;;;;25.05;36.38;97605.45;1727860;83;21538;-68
2021/06/11 09:53:54;;;;;;;1.25;1.07;;;;;;;25.11;36.41;97596.48;1728472;82;21230;-69
2021/06/11 09:56:27;;;;;;;2.52;0.88;;;;;;;25.21;38.25;97603.29;1728759;82;21052;-69
2021/06/11 09:58:58;;;;;;;2.52;1.20;;;;;;;25.31;37.19;97603.94;1728470;82;21037;-67
2021/06/11 10:01:26;;;;;;;1.15;1.05;;;;;;;25.35;36.11;97596.56;1728695;82;21034;-68
2021/06/11 10:03:55;;;;;;;1.52;1.07;;;;;;;25.48;37.31;97596.73;1728489;83;21013;-69
2021/06/11 10:06:22;;;;;;;1.22;1.12;;;;;;;25.60;37.59;97591.34;1728588;83;21490;-69
2021/06/11 10:08:51;;;;;;;1.00;0.90;;;;;;;25.75;37.97;97594.98;1728640;83;21653;-70
2021/06/11 10:11:25;;;;;;;1.57;1.22;;;;;;;25.98;38.47;97591.25;1728411;83;21073;-67
2021/06/11 10:13:50;;;;;;;1.30;1.20;;;;;;;26.16;34.79;97588.23;1728533;81;21101;-66
2021/06/11 10:16:18;;;;;;;1.17;1.02;;;;;;;26.22;35.05;97590.47;1728452;83;21101;-67
2021/06/11 10:18:47;;;;;;;1.12;1.02;;;;;;;26.68;36.95;97580.49;1728350;82;21069;-67
2021/06/11 10:21:14;;;;;;;3.90;1.27;;;;;;;27.16;37.33;97575.50;1728518;83;21443;-67
2021/06/11 10:23:42;;;;;;;1.37;1.20;;;;;;;27.46;34.58;97577.58;1728526;83;21085;-68
2021/06/11 10:26:12;;;;;;;3.65;1.05;;;;;;;27.86;33.41;97572.91;1728319;83;21002;-67
2021/06/11 10:28:45;;;;;;;0.90;0.80;;;;;;;28.54;35.08;97568.27;1728257;83;21155;-66
2021/06/11 10:31:17;;;;;;;1.17;1.07;;;;;;;29.03;35.75;97570.65;1728576;82;21608;-68
2021/06/11 10:33:49;;;;;;;3.87;1.20;;;;;;;29.38;28.91;97564.97;1727381;82;21069;-68
2021/06/11 10:36:32;;;;;;;1.07;0.80;;;;;;;29.80;31.65;97565.36;1728562;83;21092;-67
2021/06/11 10:39:15;;;;;;;3.20;1.10;;;;;;;30.45;28.60;97562.05;1728696;81;21057;-66
2021/06/11 10:42:05;;;;;;;1.12;1.00;;;;;;;30.82;29.68;97559.58;1727402;83;21096;-66
2021/06/11 10:44:40;;;;;;;1.65;0.90;;;;;;;31.09;30.27;97570.61;1728639;82;21021;-68
2021/06/11 10:47:21;;;;;;;1.17;1.07;;;;;;;31.63;28.93;97566.04;1734576;81;21112;-68
2021/06/11 10:50:03;;;;;;;1.67;1.00;;;;;;;31.66;24.91;97562.77;1728361;82;21106;-68
2021/06/11 10:52:49;;;;;;;1.32;0.95;;;;;;;32.30;26.09;97564.31;1728257;83;21077;-67
2021/06/11 10:55:21;;;;;;;1.10;1.00;;;;;;;32.58;23.33;97549.63;1728562;80;21033;-68
2021/06/11 10:57:57;;;;;;;1.20;1.10;;;;;;;32.29;24.41;97562.73;1728543;83;21085;-69
2021/06/11 11:00:34;;;;;;;1.25;1.15;;;;;;;31.91;26.08;97559.20;1728464;83;21029;-68
2021/06/11 11:03:03;;;;;;;1.75;1.32;;;;;;;32.45;26.56;97547.95;1728602;82;21572;-69
2021/06/11 11:05:42;;;;;;;1.85;1.07;;;;;;;32.16;27.92;97550.02;1728432;82;21045;-68
2021/06/11 11:08:10;;;;;;;1.40;1.30;;;;;;;31.48;28.16;97547.64;1728517;82;21029;-67
2021/06/11 11:10:47;;;;;;;1.47;1.10;;;;;;;31.30;28.59;97556.99;1728523;83;21065;-68
2021/06/11 11:13:18;;;;;;;1.95;1.30;;;;;;;30.92;29.29;97558.70;1728800;82;20989;-69
2021/06/11 11:15:49;;;;;;;1.85;1.30;;;;;;;30.61;30.58;97553.63;1728549;81;21628;-71
2021/06/11 11:18:23;;;;;;;2.45;1.47;;;;;;;29.75;31.71;97573.41;1728386;83;21141;-70
2021/06/11 11:20:48;;;;;;;2.50;1.30;;;;;;;28.70;33.44;97564.55;1725049;83;20998;-69
2021/06/11 11:23:20;;;;;;;1.92;1.60;;;;;;;29.15;31.59;97563.67;1728331;82;20986;-69
2021/06/11 11:25:49;;;;;;;2.15;1.17;;;;;;;28.83;33.11;97563.21;1728295;83;21174;-70
2021/06/11 11:28:18;;;;;;;1.50;1.10;;;;;;;27.51;35.63;97557.58;1728594;82;21056;-69
2021/06/11 11:30:47;;;;;;;1.35;0.90;;;;;;;27.05;36.15;97565.05;1728595;83;21073;-70
2021/06/11 11:33:16;;;;;;;2.30;1.22;;;;;;;26.30;37.59;97569.49;1728562;83;21005;-70
2021/06/11 11:35:47;;;;;;;2.75;1.42;;;;;;;25.43;39.48;97554.94;1728560;82;21175;-70
2021/06/11 11:38:14;;;;;;;3.37;1.50;;;;;;;25.85;38.84;97575.14;1728357;83;21127;-71
2021/06/11 11:40:42;;;;;;;2.45;1.20;;;;;;;26.01;38.84;97559.34;1728355;81;21183;-70
2021/06/11 11:43:10;;;;;;;2.12;1.22;;;;;;;26.36;38.01;97557.05;1728158;83;21206;-71
2021/06/11 11:45:39;;;;;;;1.12;0.80;;;;;;;26.68;36.99;97571.17;1728698;83;21080;-71
2021/06/11 11:48:07;;;;;;;1.20;0.90;;;;;;;27.07;36.08;97568.27;1739604;81;21056;-71